createdAt,value
2017-09-27T00:01:00.182Z,0
2017-09-27T00:02:10.135Z,0
2017-09-27T00:03:20.089Z,0
2017-09-27T00:04:30.039Z,0
2017-09-27T00:05:39.994Z,0
2017-09-27T00:06:49.950Z,0
2017-09-27T00:07:59.900Z,0
2017-09-27T00:09:10.174Z,0
2017-09-27T00:10:20.450Z,0
2017-09-27T00:11:30.724Z,0
2017-09-27T00:12:41.001Z,0
2017-09-27T00:13:50.633Z,0
2017-09-27T00:15:00.589Z,0
2017-09-27T00:16:10.219Z,0
2017-09-27T00:17:20.171Z,0
2017-09-27T00:18:30.490Z,0
2017-09-27T00:19:40.129Z,0
2017-09-27T00:20:50.409Z,0
2017-09-27T00:22:00.681Z,0
2017-09-27T00:23:10.958Z,0
2017-09-27T00:24:20.592Z,0
2017-09-27T00:25:30.869Z,0
2017-09-27T00:26:41.142Z,0
2017-09-27T00:27:51.101Z,0
2017-09-27T00:29:01.054Z,0
2017-09-27T00:30:11.336Z,0
2017-09-27T00:31:20.973Z,0
2017-09-27T00:32:31.255Z,0
2017-09-27T00:33:41.210Z,0
2017-09-27T00:34:51.164Z,0
2017-09-27T00:36:03.441Z,0
2017-09-27T00:37:13.721Z,0
2017-09-27T00:38:23.989Z,0
2017-09-27T00:39:33.952Z,0
2017-09-27T00:40:44.238Z,0
2017-09-27T00:41:54.520Z,0
2017-09-27T00:43:04.156Z,0
2017-09-27T00:44:14.432Z,0
2017-09-27T00:45:24.389Z,0
2017-09-27T00:46:34.343Z,0
2017-09-27T00:47:44.294Z,0
2017-09-27T00:48:54.251Z,0
2017-09-27T00:50:04.521Z,0
2017-09-27T00:51:14.808Z,0
2017-09-27T00:52:25.086Z,0
2017-09-27T00:53:35.367Z,0
2017-09-27T00:54:45.688Z,0
2017-09-27T00:55:55.960Z,0
2017-09-27T00:57:06.243Z,0
2017-09-27T00:58:16.519Z,0
2017-09-27T00:59:26.475Z,0
2017-09-27T01:00:36.423Z,0
2017-09-27T01:01:46.378Z,0
2017-09-27T01:02:56.335Z,0
2017-09-27T01:04:06.616Z,0
2017-09-27T01:05:16.900Z,0
2017-09-27T01:06:27.174Z,0
2017-09-27T01:07:37.455Z,0
2017-09-27T01:08:47.084Z,0
2017-09-27T01:09:57.362Z,0
2017-09-27T01:11:07.324Z,0
2017-09-27T01:12:17.294Z,0
2017-09-27T01:13:27.584Z,0
2017-09-27T01:14:37.862Z,0
2017-09-27T01:15:48.140Z,0
2017-09-27T01:16:58.414Z,0
2017-09-27T01:18:08.043Z,0
2017-09-27T01:19:18.317Z,0
2017-09-27T01:20:27.944Z,0
2017-09-27T01:21:37.892Z,0
2017-09-27T01:22:48.179Z,0
2017-09-27T01:23:58.453Z,0
2017-09-27T01:25:08.730Z,0
2017-09-27T01:26:19.004Z,0
2017-09-27T01:27:28.957Z,0
2017-09-27T01:28:38.910Z,0
2017-09-27T01:29:48.866Z,0
2017-09-27T01:30:59.141Z,0
2017-09-27T01:32:08.781Z,0
2017-09-27T01:33:18.755Z,0
2017-09-27T01:34:29.037Z,0
2017-09-27T01:35:39.327Z,0
2017-09-27T01:36:49.272Z,0
2017-09-27T01:37:59.540Z,0
2017-09-27T01:39:09.820Z,0
2017-09-27T01:40:19.768Z,0
2017-09-27T01:41:30.047Z,0
2017-09-27T01:42:40.320Z,0
2017-09-27T01:43:50.595Z,0
2017-09-27T01:45:00.542Z,0
2017-09-27T01:46:10.810Z,0
2017-09-27T01:47:20.769Z,0
2017-09-27T01:48:31.042Z,0
2017-09-27T01:49:41.315Z,0
2017-09-27T01:50:51.597Z,0
2017-09-27T01:52:00.912Z,0
2017-09-27T01:53:11.181Z,0
2017-09-27T01:54:21.460Z,0
2017-09-27T01:55:31.741Z,0
2017-09-27T01:56:41.370Z,0
2017-09-27T01:57:51.650Z,0
2017-09-27T01:59:01.926Z,0
2017-09-27T02:00:11.558Z,0
2017-09-27T02:01:21.830Z,0
2017-09-27T02:02:31.782Z,0
2017-09-27T02:03:42.056Z,0
2017-09-27T02:04:52.009Z,0
2017-09-27T02:06:02.299Z,0
2017-09-27T02:07:12.580Z,0
2017-09-27T02:08:22.536Z,0
2017-09-27T02:09:32.500Z,0
2017-09-27T02:10:42.780Z,0
2017-09-27T02:11:53.069Z,0
2017-09-27T02:13:03.057Z,0
2017-09-27T02:14:12.687Z,0
2017-09-27T02:15:22.314Z,0
2017-09-27T02:16:32.592Z,0
2017-09-27T02:17:42.867Z,0
2017-09-27T02:18:53.134Z,0
2017-09-27T02:20:03.086Z,0
2017-09-27T02:21:12.079Z,0
2017-09-27T02:22:22.360Z,0
2017-09-27T02:23:32.306Z,0
2017-09-27T02:24:42.262Z,0
2017-09-27T02:25:51.890Z,0
2017-09-27T02:27:02.165Z,0
2017-09-27T02:28:12.114Z,0
2017-09-27T02:29:22.068Z,0
2017-09-27T02:30:32.398Z,0
2017-09-27T02:31:42.352Z,0
2017-09-27T02:32:52.626Z,0
2017-09-27T02:34:02.900Z,0
2017-09-27T02:35:12.855Z,0
2017-09-27T02:36:22.816Z,0
2017-09-27T02:37:33.095Z,0
2017-09-27T02:38:43.374Z,0
2017-09-27T02:39:53.329Z,0
2017-09-27T02:41:03.604Z,0
2017-09-27T02:42:13.882Z,0
2017-09-27T02:43:24.154Z,0
2017-09-27T02:44:34.103Z,0
2017-09-27T02:45:44.375Z,0
2017-09-27T02:46:54.330Z,0
2017-09-27T02:48:04.289Z,0
2017-09-27T02:49:14.562Z,0
2017-09-27T02:50:24.842Z,0
2017-09-27T02:51:34.801Z,0
2017-09-27T02:52:45.087Z,0
2017-09-27T02:53:55.373Z,0
2017-09-27T02:55:05.321Z,0
2017-09-27T02:56:15.602Z,0
2017-09-27T02:57:25.882Z,0
2017-09-27T02:58:36.162Z,0
2017-09-27T02:59:46.435Z,0
2017-09-27T03:00:56.066Z,0
2017-09-27T03:02:06.025Z,0
2017-09-27T03:03:15.979Z,0
2017-09-27T03:04:26.265Z,0
2017-09-27T03:05:36.538Z,0
2017-09-27T03:06:46.820Z,0
2017-09-27T03:07:57.091Z,0
2017-09-27T03:09:07.045Z,0
2017-09-27T03:10:16.999Z,0
2017-09-27T03:11:27.273Z,0
2017-09-27T03:12:37.550Z,0
2017-09-27T03:13:47.831Z,0
2017-09-27T03:14:58.118Z,0
2017-09-27T03:16:08.399Z,0
2017-09-27T03:17:18.365Z,0
2017-09-27T03:18:28.318Z,0
2017-09-27T03:19:40.044Z,0
2017-09-27T03:20:50.397Z,0
2017-09-27T03:22:00.024Z,0
2017-09-27T03:23:10.305Z,0
2017-09-27T03:24:20.574Z,0
2017-09-27T03:25:30.534Z,0
2017-09-27T03:26:40.484Z,0
2017-09-27T03:27:50.760Z,0
2017-09-27T03:29:01.058Z,0
2017-09-27T03:30:11.342Z,0
2017-09-27T03:31:21.624Z,0
2017-09-27T03:32:31.903Z,0
2017-09-27T03:33:42.185Z,0
2017-09-27T03:34:52.463Z,0
2017-09-27T03:36:02.430Z,0
2017-09-27T03:37:12.385Z,0
2017-09-27T03:38:22.665Z,0
2017-09-27T03:39:32.948Z,0
2017-09-27T03:40:42.902Z,0
2017-09-27T03:41:52.849Z,0
2017-09-27T03:43:03.124Z,0
2017-09-27T03:44:13.076Z,0
2017-09-27T03:45:23.031Z,0
2017-09-27T03:46:32.985Z,0
2017-09-27T03:47:42.940Z,0
2017-09-27T03:48:52.892Z,0
2017-09-27T03:50:02.521Z,0
2017-09-27T03:51:12.470Z,0
2017-09-27T03:52:22.740Z,0
2017-09-27T03:53:33.020Z,0
2017-09-27T03:54:43.297Z,0
2017-09-27T03:55:53.568Z,0
2017-09-27T03:57:03.844Z,0
2017-09-27T03:58:14.124Z,0
2017-09-27T03:59:24.080Z,0
2017-09-27T04:00:34.032Z,0
2017-09-27T04:01:44.312Z,0
2017-09-27T04:02:54.590Z,0
2017-09-27T04:04:04.544Z,0
2017-09-27T04:05:14.812Z,0
2017-09-27T04:06:24.765Z,0
2017-09-27T04:07:34.394Z,0
2017-09-27T04:08:44.681Z,0
2017-09-27T04:09:54.640Z,0
2017-09-27T04:11:04.276Z,0
2017-09-27T04:12:14.553Z,0
2017-09-27T04:13:24.829Z,0
2017-09-27T04:14:35.098Z,0
2017-09-27T04:15:45.370Z,0
2017-09-27T04:16:55.355Z,0
2017-09-27T04:18:05.628Z,0
2017-09-27T04:19:15.580Z,0
2017-09-27T04:20:25.542Z,0
2017-09-27T04:21:35.833Z,0
2017-09-27T04:22:45.785Z,0
2017-09-27T04:23:56.072Z,0
2017-09-27T04:25:06.350Z,0
2017-09-27T04:26:16.635Z,0
2017-09-27T04:27:26.592Z,0
2017-09-27T04:28:36.221Z,0
2017-09-27T04:29:46.495Z,0
2017-09-27T04:30:56.451Z,0
2017-09-27T04:32:06.729Z,0
2017-09-27T04:33:16.680Z,0
2017-09-27T04:34:26.965Z,0
2017-09-27T04:35:36.919Z,0
2017-09-27T04:36:46.554Z,0
2017-09-27T04:37:56.504Z,0
2017-09-27T04:39:06.781Z,0
2017-09-27T04:40:16.737Z,0
2017-09-27T04:41:26.690Z,0
2017-09-27T04:42:36.965Z,0
2017-09-27T04:43:46.918Z,0
2017-09-27T04:44:56.866Z,4
2017-09-27T04:46:06.818Z,4
2017-09-27T04:47:17.100Z,0
2017-09-27T04:48:27.381Z,4
2017-09-27T04:49:37.664Z,4
2017-09-27T04:50:47.619Z,4
2017-09-27T04:51:57.898Z,8
2017-09-27T04:53:08.422Z,4
2017-09-27T04:54:18.694Z,8
2017-09-27T04:55:28.975Z,8
2017-09-27T04:56:38.932Z,8
2017-09-27T04:57:48.561Z,12
2017-09-27T04:58:58.188Z,12
2017-09-27T05:00:08.145Z,12
2017-09-27T05:01:18.105Z,20
2017-09-27T05:02:28.383Z,20
2017-09-27T05:03:38.657Z,20
2017-09-27T05:04:48.933Z,28
2017-09-27T05:05:58.888Z,32
2017-09-27T05:07:08.518Z,36
2017-09-27T05:08:18.799Z,40
2017-09-27T05:09:29.075Z,48
2017-09-27T05:10:39.351Z,56
2017-09-27T05:11:49.304Z,60
2017-09-27T05:12:59.571Z,68
2017-09-27T05:14:09.528Z,64
2017-09-27T05:15:19.807Z,68
2017-09-27T05:16:30.119Z,68
2017-09-27T05:17:40.069Z,68
2017-09-27T05:18:50.347Z,76
2017-09-27T05:20:00.301Z,88
2017-09-27T05:21:10.587Z,92
2017-09-27T05:22:20.534Z,100
2017-09-27T05:23:30.809Z,108
2017-09-27T05:24:40.766Z,116
2017-09-27T05:25:51.045Z,124
2017-09-27T05:27:01.337Z,136
2017-09-27T05:28:11.294Z,164
2017-09-27T05:29:21.251Z,176
2017-09-27T05:30:31.208Z,196
2017-09-27T05:31:41.164Z,212
2017-09-27T05:32:50.795Z,220
2017-09-27T05:34:01.051Z,228
2017-09-27T05:35:11.329Z,252
2017-09-27T05:36:21.603Z,272
2017-09-27T05:37:31.882Z,276
2017-09-27T05:38:41.515Z,288
2017-09-27T05:39:51.803Z,320
2017-09-27T05:41:01.758Z,352
2017-09-27T05:42:12.034Z,388
2017-09-27T05:43:21.346Z,420
2017-09-27T05:44:31.301Z,468
2017-09-27T05:45:41.254Z,488
2017-09-27T05:46:51.522Z,548
2017-09-27T05:48:01.479Z,600
2017-09-27T05:49:11.431Z,620
2017-09-27T05:50:21.384Z,624
2017-09-27T05:51:31.663Z,652
2017-09-27T05:52:41.297Z,684
2017-09-27T05:53:51.576Z,668
2017-09-27T05:55:01.536Z,656
2017-09-27T05:56:11.489Z,636
2017-09-27T05:57:21.464Z,620
2017-09-27T05:58:31.747Z,604
2017-09-27T05:59:42.030Z,580
2017-09-27T06:00:51.980Z,568
2017-09-27T06:02:01.617Z,600
2017-09-27T06:03:11.569Z,616
2017-09-27T06:04:21.521Z,612
2017-09-27T06:05:31.805Z,588
2017-09-27T06:06:42.077Z,644
2017-09-27T06:07:51.708Z,680
2017-09-27T06:09:01.662Z,684
2017-09-27T06:10:11.619Z,676
2017-09-27T06:11:21.585Z,708
2017-09-27T06:12:31.541Z,696
2017-09-27T06:13:41.824Z,720
2017-09-27T06:14:52.098Z,772
2017-09-27T06:16:01.405Z,736
2017-09-27T06:17:11.370Z,736
2017-09-27T06:18:21.642Z,720
2017-09-27T06:19:31.275Z,664
2017-09-27T06:20:41.560Z,676
2017-09-27T06:21:51.834Z,684
2017-09-27T06:23:01.144Z,680
2017-09-27T06:24:11.142Z,648
2017-09-27T06:25:21.435Z,624
2017-09-27T06:26:31.708Z,660
2017-09-27T06:27:41.655Z,672
2017-09-27T06:28:51.608Z,624
2017-09-27T06:30:01.565Z,676
2017-09-27T06:31:11.846Z,768
2017-09-27T06:32:21.799Z,832
2017-09-27T06:33:32.075Z,796
2017-09-27T06:34:42.033Z,876
2017-09-27T06:35:51.985Z,936
2017-09-27T06:37:01.295Z,944
2017-09-27T06:38:11.573Z,1032
2017-09-27T06:39:21.848Z,1104
2017-09-27T06:40:32.123Z,1032
2017-09-27T06:41:42.465Z,1056
2017-09-27T06:42:52.803Z,1048
2017-09-27T06:44:03.082Z,1088
2017-09-27T06:45:13.037Z,1064
2017-09-27T06:46:22.666Z,1044
2017-09-27T06:47:32.944Z,1092
2017-09-27T06:48:43.336Z,1164
2017-09-27T06:49:53.305Z,1204
2017-09-27T06:51:03.589Z,1008
2017-09-27T06:52:13.868Z,1064
2017-09-27T06:53:23.497Z,1244
2017-09-27T06:54:33.773Z,1236
2017-09-27T06:55:43.724Z,1192
2017-09-27T06:56:54.000Z,1176
2017-09-27T06:58:03.963Z,1396
2017-09-27T06:59:14.238Z,1456
2017-09-27T07:00:24.511Z,1332
2017-09-27T07:01:34.461Z,1244
2017-09-27T07:02:44.093Z,1180
2017-09-27T07:03:53.722Z,1272
2017-09-27T07:05:03.673Z,1452
2017-09-27T07:06:13.628Z,1532
2017-09-27T07:07:23.905Z,1572
2017-09-27T07:08:34.179Z,1732
2017-09-27T07:09:44.464Z,1588
2017-09-27T07:10:54.423Z,1440
2017-09-27T07:12:04.700Z,1384
2017-09-27T07:13:14.655Z,1344
2017-09-27T07:14:24.938Z,1152
2017-09-27T07:15:34.894Z,1152
2017-09-27T07:16:44.849Z,1116
2017-09-27T07:17:55.123Z,1004
2017-09-27T07:19:04.756Z,996
2017-09-27T07:20:15.032Z,968
2017-09-27T07:21:24.346Z,972
2017-09-27T07:22:34.633Z,944
2017-09-27T07:23:44.281Z,960
2017-09-27T07:24:54.561Z,1044
2017-09-27T07:26:03.867Z,1120
2017-09-27T07:27:13.827Z,1288
2017-09-27T07:28:24.112Z,1512
2017-09-27T07:29:34.065Z,1824
2017-09-27T07:30:44.344Z,1932
2017-09-27T07:31:54.620Z,1908
2017-09-27T07:33:03.924Z,1860
2017-09-27T07:34:13.882Z,1724
2017-09-27T07:35:24.161Z,1516
2017-09-27T07:36:34.434Z,1368
2017-09-27T07:37:44.392Z,1344
2017-09-27T07:38:54.660Z,1324
2017-09-27T07:40:04.299Z,1432
2017-09-27T07:41:14.258Z,1692
2017-09-27T07:42:24.531Z,2044
2017-09-27T07:43:34.803Z,2204
2017-09-27T07:44:44.756Z,2176
2017-09-27T07:45:55.031Z,2224
2017-09-27T07:47:04.983Z,2404
2017-09-27T07:48:14.939Z,2744
2017-09-27T07:49:24.567Z,2992
2017-09-27T07:50:41.111Z,2952
2017-09-27T07:51:51.383Z,2760
2017-09-27T07:53:00.692Z,2488
2017-09-27T07:54:10.645Z,2288
2017-09-27T07:55:20.915Z,2292
2017-09-27T07:56:30.551Z,2560
2017-09-27T07:57:40.829Z,2784
2017-09-27T07:58:51.114Z,2920
2017-09-27T08:00:01.389Z,2424
2017-09-27T08:01:11.348Z,2016
2017-09-27T08:02:21.316Z,2036
2017-09-27T08:03:31.272Z,2180
2017-09-27T08:04:41.226Z,2284
2017-09-27T08:05:51.179Z,2424
2017-09-27T08:07:01.130Z,2672
2017-09-27T08:08:11.409Z,2636
2017-09-27T08:09:21.833Z,2532
2017-09-27T08:10:32.325Z,2712
2017-09-27T08:11:42.288Z,3264
2017-09-27T08:12:52.602Z,3328
2017-09-27T08:14:02.567Z,3644
2017-09-27T08:15:12.849Z,3844
2017-09-27T08:16:23.132Z,3768
2017-09-27T08:17:33.405Z,3460
2017-09-27T08:18:43.354Z,2996
2017-09-27T08:19:53.305Z,2808
2017-09-27T08:21:03.586Z,2900
2017-09-27T08:22:13.867Z,3216
2017-09-27T08:23:24.143Z,3408
2017-09-27T08:24:34.098Z,3360
2017-09-27T08:25:44.059Z,3380
2017-09-27T08:26:54.336Z,3700
2017-09-27T08:28:04.288Z,3424
2017-09-27T08:29:14.558Z,3672
2017-09-27T08:30:24.514Z,4164
2017-09-27T08:31:34.469Z,4644
2017-09-27T08:32:44.754Z,5216
2017-09-27T08:33:55.034Z,4828
2017-09-27T08:35:05.010Z,4784
2017-09-27T08:36:14.979Z,5272
2017-09-27T08:37:25.252Z,5648
2017-09-27T08:38:35.531Z,5640
2017-09-27T08:39:45.807Z,6288
2017-09-27T08:40:55.767Z,6316
2017-09-27T08:42:05.398Z,6364
2017-09-27T08:43:15.684Z,6764
2017-09-27T08:44:25.645Z,7376
2017-09-27T08:45:35.598Z,7760
2017-09-27T08:46:45.230Z,7740
2017-09-27T08:47:55.508Z,7360
2017-09-27T08:49:05.470Z,6644
2017-09-27T08:50:15.749Z,6188
2017-09-27T08:51:26.050Z,6132
2017-09-27T08:52:35.684Z,5808
2017-09-27T08:53:45.634Z,6700
2017-09-27T08:54:55.917Z,7004
2017-09-27T08:56:06.200Z,6944
2017-09-27T08:57:16.475Z,7108
2017-09-27T08:58:26.107Z,6044
2017-09-27T08:59:36.072Z,4664
2017-09-27T09:00:46.356Z,3912
2017-09-27T09:01:56.312Z,3804
2017-09-27T09:03:06.262Z,3776
2017-09-27T09:04:16.538Z,4000
2017-09-27T09:05:26.817Z,4172
2017-09-27T09:06:37.094Z,4588
2017-09-27T09:07:47.059Z,5240
2017-09-27T09:08:57.339Z,5664
2017-09-27T09:10:07.624Z,5820
2017-09-27T09:11:17.261Z,6044
2017-09-27T09:12:27.223Z,6164
2017-09-27T09:13:37.537Z,6424
2017-09-27T09:14:47.484Z,6392
2017-09-27T09:15:57.772Z,6424
2017-09-27T09:17:08.058Z,6792
2017-09-27T09:18:17.374Z,6748
2017-09-27T09:19:27.327Z,6860
2017-09-27T09:20:37.293Z,6600
2017-09-27T09:21:47.248Z,6836
2017-09-27T09:22:57.200Z,6384
2017-09-27T09:24:07.483Z,6116
2017-09-27T09:25:17.769Z,5596
2017-09-27T09:26:26.756Z,4504
2017-09-27T09:27:37.035Z,4288
2017-09-27T09:28:47.316Z,4292
2017-09-27T09:29:56.946Z,4868
2017-09-27T09:31:07.231Z,6200
2017-09-27T09:32:17.555Z,6604
2017-09-27T09:33:27.830Z,6900
2017-09-27T09:34:37.493Z,7184
2017-09-27T09:35:47.125Z,6940
2017-09-27T09:36:57.082Z,6340
2017-09-27T09:38:07.039Z,5724
2017-09-27T09:39:16.679Z,5200
2017-09-27T09:40:26.983Z,5200
2017-09-27T09:41:36.937Z,4976
2017-09-27T09:42:47.212Z,5352
2017-09-27T09:43:57.175Z,5720
2017-09-27T09:45:07.465Z,5684
2017-09-27T09:46:17.417Z,6360
2017-09-27T09:47:27.692Z,6728
2017-09-27T09:48:37.340Z,7584
2017-09-27T09:49:47.613Z,7000
2017-09-27T09:50:56.931Z,5928
2017-09-27T09:52:06.912Z,5724
2017-09-27T09:53:16.863Z,6380
2017-09-27T09:54:27.141Z,7160
2017-09-27T09:55:37.427Z,7148
2017-09-27T09:56:47.704Z,6404
2017-09-27T09:57:57.347Z,6560
2017-09-27T09:59:06.984Z,7216
2017-09-27T10:00:17.269Z,7452
2017-09-27T10:01:27.552Z,6608
2017-09-27T10:02:37.510Z,6228
2017-09-27T10:03:47.482Z,7404
2017-09-27T10:04:57.434Z,7244
2017-09-27T10:06:07.752Z,6292
2017-09-27T10:07:17.713Z,6248
2017-09-27T10:08:27.348Z,6720
2017-09-27T10:09:37.622Z,7324
2017-09-27T10:10:47.578Z,7500
2017-09-27T10:11:57.863Z,7192
2017-09-27T10:13:07.544Z,7152
2017-09-27T10:14:17.830Z,8028
2017-09-27T10:15:28.112Z,8608
2017-09-27T10:16:38.398Z,9040
2017-09-27T10:17:48.681Z,10056
2017-09-27T10:18:58.960Z,9748
2017-09-27T10:20:08.917Z,8772
2017-09-27T10:21:18.877Z,8412
2017-09-27T10:22:28.840Z,8452
2017-09-27T10:23:39.123Z,8756
2017-09-27T10:24:48.760Z,8436
2017-09-27T10:25:58.724Z,9124
2017-09-27T10:27:09.000Z,9548
2017-09-27T10:28:18.636Z,8068
2017-09-27T10:29:28.269Z,8756
2017-09-27T10:30:38.553Z,9056
2017-09-27T10:31:48.512Z,9120
2017-09-27T10:32:58.147Z,10220
2017-09-27T10:34:08.113Z,11408
2017-09-27T10:35:18.391Z,12528
2017-09-27T10:36:28.671Z,13008
2017-09-27T10:37:38.649Z,13400
2017-09-27T10:38:48.930Z,13856
2017-09-27T10:39:58.562Z,13212
2017-09-27T10:41:08.843Z,13568
2017-09-27T10:42:19.122Z,13948
2017-09-27T10:43:29.508Z,14232
2017-09-27T10:44:39.794Z,14316
2017-09-27T10:45:50.073Z,13548
2017-09-27T10:47:00.351Z,12500
2017-09-27T10:48:10.307Z,13180
2017-09-27T10:49:20.582Z,13952
2017-09-27T10:50:30.545Z,14100
2017-09-27T10:51:40.502Z,13500
2017-09-27T10:52:50.464Z,13164
2017-09-27T10:54:00.429Z,12436
2017-09-27T10:55:10.396Z,12852
2017-09-27T10:56:20.680Z,13032
2017-09-27T10:57:30.674Z,14680
2017-09-27T10:58:40.950Z,12624
2017-09-27T10:59:50.926Z,13336
2017-09-27T11:01:01.215Z,13268
2017-09-27T11:02:11.225Z,12732
2017-09-27T11:03:21.590Z,13404
2017-09-27T11:04:31.877Z,12844
2017-09-27T11:05:42.191Z,12636
2017-09-27T11:06:52.172Z,12952
2017-09-27T11:08:01.810Z,12556
2017-09-27T11:09:12.119Z,12052
2017-09-27T11:10:21.788Z,12988
2017-09-27T11:11:32.102Z,13084
2017-09-27T11:12:42.088Z,13956
2017-09-27T11:13:52.371Z,13916
2017-09-27T11:15:02.331Z,13388
2017-09-27T11:16:12.318Z,14604
2017-09-27T11:17:22.608Z,13444
2017-09-27T11:18:32.888Z,11220
2017-09-27T11:19:42.846Z,9980
2017-09-27T11:20:52.807Z,9800
2017-09-27T11:22:02.767Z,9408
2017-09-27T11:23:12.756Z,9648
2017-09-27T11:24:22.406Z,9284
2017-09-27T11:25:32.367Z,9212
2017-09-27T11:26:42.659Z,9264
2017-09-27T11:27:52.623Z,9496
2017-09-27T11:29:02.267Z,9840
2017-09-27T11:30:11.900Z,10856
2017-09-27T11:31:21.859Z,11732
2017-09-27T11:32:32.134Z,12556
2017-09-27T11:33:42.099Z,12672
2017-09-27T11:34:52.383Z,12664
2017-09-27T11:36:02.659Z,12428
2017-09-27T11:37:12.942Z,13264
2017-09-27T11:38:23.234Z,12792
2017-09-27T11:39:33.517Z,9620
2017-09-27T11:40:43.809Z,8560
2017-09-27T11:41:53.767Z,7872
2017-09-27T11:43:04.044Z,7168
2017-09-27T11:44:13.682Z,7384
2017-09-27T11:45:23.961Z,7148
2017-09-27T11:46:34.254Z,6532
2017-09-27T11:47:44.531Z,5748
2017-09-27T11:48:54.815Z,5528
2017-09-27T11:50:05.111Z,5480
2017-09-27T11:51:15.072Z,5912
2017-09-27T11:52:25.352Z,6356
2017-09-27T11:53:35.315Z,8640
2017-09-27T11:54:45.612Z,12252
2017-09-27T11:55:55.251Z,12452
2017-09-27T11:57:05.784Z,16256
2017-09-27T11:58:16.058Z,16704
2017-09-27T11:59:26.345Z,14748
2017-09-27T12:00:36.669Z,16384
2017-09-27T12:01:46.632Z,21312
2017-09-27T12:02:56.590Z,15360
2017-09-27T12:04:06.567Z,14908
2017-09-27T12:05:16.531Z,13896
2017-09-27T12:06:26.491Z,12036
2017-09-27T12:07:36.454Z,8588
2017-09-27T12:08:46.742Z,7500
2017-09-27T12:09:56.376Z,6084
2017-09-27T12:11:06.664Z,5808
2017-09-27T12:12:16.949Z,7160
2017-09-27T12:13:26.917Z,8060
2017-09-27T12:14:37.207Z,9196
2017-09-27T12:15:47.166Z,9120
2017-09-27T12:16:56.806Z,9312
2017-09-27T12:18:06.453Z,9676
2017-09-27T12:19:16.415Z,9860
2017-09-27T12:20:26.696Z,9856
2017-09-27T12:21:36.985Z,8644
2017-09-27T12:22:46.623Z,8376
2017-09-27T12:23:56.590Z,7760
2017-09-27T12:25:06.228Z,6856
2017-09-27T12:26:16.516Z,6328
2017-09-27T12:27:26.798Z,8348
2017-09-27T12:28:36.765Z,9176
2017-09-27T12:29:46.725Z,8528
2017-09-27T12:30:56.679Z,7584
2017-09-27T12:32:06.991Z,7284
2017-09-27T12:33:16.951Z,6888
2017-09-27T12:34:27.234Z,6452
2017-09-27T12:35:36.869Z,5648
2017-09-27T12:36:46.504Z,5564
2017-09-27T12:37:56.465Z,6392
2017-09-27T12:39:06.746Z,6888
2017-09-27T12:40:17.026Z,5920
2017-09-27T12:41:27.306Z,5768
2017-09-27T12:42:37.638Z,5760
2017-09-27T12:43:47.593Z,5748
2017-09-27T12:44:57.876Z,5420
2017-09-27T12:46:09.511Z,5180
2017-09-27T12:47:19.810Z,4716
2017-09-27T12:48:29.443Z,4024
2017-09-27T12:49:39.722Z,3720
2017-09-27T12:50:49.680Z,3792
2017-09-27T12:51:59.315Z,4168
2017-09-27T12:53:09.594Z,4568
2017-09-27T12:54:19.880Z,4628
2017-09-27T12:55:30.158Z,4860
2017-09-27T12:56:40.438Z,5160
2017-09-27T12:57:50.722Z,5480
2017-09-27T12:59:00.360Z,5056
2017-09-27T13:00:10.004Z,4832
2017-09-27T13:01:20.288Z,5228
2017-09-27T13:02:30.293Z,5456
2017-09-27T13:03:40.259Z,5500
2017-09-27T13:04:50.228Z,5704
2017-09-27T13:06:00.517Z,6196
2017-09-27T13:07:10.476Z,6476
2017-09-27T13:08:20.117Z,6984
2017-09-27T13:09:30.404Z,7692
2017-09-27T13:10:40.691Z,8684
2017-09-27T13:11:50.975Z,9608
2017-09-27T13:13:00.937Z,8808
2017-09-27T13:14:10.252Z,8152
2017-09-27T13:15:20.534Z,7232
2017-09-27T13:16:30.501Z,7632
2017-09-27T13:17:40.464Z,7532
2017-09-27T13:18:50.761Z,7480
2017-09-27T13:20:00.399Z,7884
2017-09-27T13:21:10.359Z,7832
2017-09-27T13:22:20.637Z,7380
2017-09-27T13:23:30.596Z,6488
2017-09-27T13:24:40.547Z,6380
2017-09-27T13:25:50.827Z,6024
2017-09-27T13:27:00.463Z,5812
2017-09-27T13:28:10.744Z,6032
2017-09-27T13:29:20.698Z,7156
2017-09-27T13:30:30.654Z,7360
2017-09-27T13:31:40.940Z,6336
2017-09-27T13:32:51.230Z,6088
2017-09-27T13:34:00.542Z,5948
2017-09-27T13:35:10.502Z,6212
2017-09-27T13:36:20.782Z,6164
2017-09-27T13:37:30.745Z,5928
2017-09-27T13:38:41.035Z,5908
2017-09-27T13:39:50.998Z,5968
2017-09-27T13:41:00.964Z,6324
2017-09-27T13:42:11.456Z,6680
2017-09-27T13:43:21.413Z,6900
2017-09-27T13:44:31.694Z,7664
2017-09-27T13:45:41.983Z,8368
2017-09-27T13:46:51.956Z,9524
2017-09-27T13:48:02.238Z,10704
2017-09-27T13:49:11.869Z,10436
2017-09-27T13:50:21.806Z,9676
2017-09-27T13:51:31.775Z,9492
2017-09-27T13:52:42.059Z,8856
2017-09-27T13:53:52.338Z,7960
2017-09-27T13:55:01.974Z,7348
2017-09-27T13:56:11.944Z,6348
2017-09-27T13:57:21.597Z,5652
2017-09-27T13:58:31.552Z,5284
2017-09-27T13:59:41.840Z,5008
2017-09-27T14:00:51.799Z,4724
2017-09-27T14:02:01.756Z,4364
2017-09-27T14:03:11.396Z,4004
2017-09-27T14:04:21.362Z,3736
2017-09-27T14:05:31.000Z,3808
2017-09-27T14:06:41.282Z,3892
2017-09-27T14:07:51.561Z,3880
2017-09-27T14:09:01.518Z,3852
2017-09-27T14:10:11.796Z,4200
2017-09-27T14:11:22.084Z,4376
2017-09-27T14:12:32.045Z,4824
2017-09-27T14:13:42.328Z,5624
2017-09-27T14:14:52.294Z,5796
2017-09-27T14:16:01.930Z,5520
2017-09-27T14:17:11.891Z,5568
2017-09-27T14:18:22.169Z,5616
2017-09-27T14:19:32.450Z,6020
2017-09-27T14:20:42.777Z,6232
2017-09-27T14:21:53.063Z,6524
2017-09-27T14:23:03.343Z,6896
2017-09-27T14:24:13.620Z,7384
2017-09-27T14:25:23.895Z,7332
2017-09-27T14:26:33.863Z,7060
2017-09-27T14:27:44.140Z,6792
2017-09-27T14:28:54.108Z,6528
2017-09-27T14:30:04.393Z,6524
2017-09-27T14:31:14.674Z,7916
2017-09-27T14:32:24.630Z,9672
2017-09-27T14:33:34.906Z,10516
2017-09-27T14:34:45.185Z,10648
2017-09-27T14:35:54.830Z,10196
2017-09-27T14:37:04.794Z,9936
2017-09-27T14:38:14.766Z,10328
2017-09-27T14:39:25.045Z,11876
2017-09-27T14:40:35.328Z,11768
2017-09-27T14:41:45.285Z,11972
2017-09-27T14:42:55.568Z,11676
2017-09-27T14:44:04.879Z,12124
2017-09-27T14:45:14.838Z,11516
2017-09-27T14:46:25.118Z,11192
2017-09-27T14:47:35.074Z,11492
2017-09-27T14:48:45.369Z,11036
2017-09-27T14:49:55.649Z,11584
2017-09-27T14:51:05.611Z,11996
2017-09-27T14:52:15.925Z,11356
2017-09-27T14:53:25.568Z,10276
2017-09-27T14:54:35.853Z,9824
2017-09-27T14:55:46.133Z,9760
2017-09-27T14:56:56.417Z,8700
2017-09-27T14:58:06.059Z,7552
2017-09-27T14:59:16.017Z,6528
2017-09-27T15:00:25.981Z,5776
2017-09-27T15:01:36.266Z,5028
2017-09-27T15:02:46.543Z,4340
2017-09-27T15:03:56.185Z,4244
2017-09-27T15:05:05.822Z,4412
2017-09-27T15:06:16.105Z,4252
2017-09-27T15:07:26.416Z,4028
2017-09-27T15:08:36.697Z,4012
2017-09-27T15:09:46.655Z,3864
2017-09-27T15:10:56.629Z,3576
2017-09-27T15:12:06.917Z,3316
2017-09-27T15:13:17.195Z,3108
2017-09-27T15:14:27.474Z,2776
2017-09-27T15:15:37.758Z,2652
2017-09-27T15:16:48.040Z,2672
2017-09-27T15:17:58.001Z,2484
2017-09-27T15:19:07.958Z,2280
2017-09-27T15:20:17.917Z,2096
2017-09-27T15:21:28.203Z,1976
2017-09-27T15:22:38.487Z,1832
2017-09-27T15:23:48.449Z,1760
2017-09-27T15:24:58.727Z,1692
2017-09-27T15:26:08.684Z,1564
2017-09-27T15:27:18.321Z,1464
2017-09-27T15:28:27.956Z,1464
2017-09-27T15:29:38.251Z,1492
2017-09-27T15:30:48.535Z,1400
2017-09-27T15:31:58.172Z,1336
2017-09-27T15:33:08.136Z,1312
2017-09-27T15:34:18.414Z,1288
2017-09-27T15:35:28.053Z,1276
2017-09-27T15:36:38.014Z,1264
2017-09-27T15:37:47.978Z,1320
2017-09-27T15:38:57.621Z,1360
2017-09-27T15:40:07.906Z,1364
2017-09-27T15:41:17.864Z,1372
2017-09-27T15:42:28.147Z,1288
2017-09-27T15:43:37.785Z,1260
2017-09-27T15:44:48.065Z,1272
2017-09-27T15:45:58.019Z,1332
2017-09-27T15:47:07.980Z,1444
2017-09-27T15:48:17.941Z,1572
2017-09-27T15:49:28.228Z,1720
2017-09-27T15:50:38.511Z,1780
2017-09-27T15:51:48.794Z,1680
2017-09-27T15:52:58.756Z,1568
2017-09-27T15:54:08.388Z,1428
2017-09-27T15:55:18.676Z,1356
2017-09-27T15:56:28.956Z,1296
2017-09-27T15:57:39.246Z,1240
2017-09-27T15:58:49.201Z,1264
2017-09-27T15:59:59.479Z,1304
2017-09-27T16:01:08.798Z,1392
2017-09-27T16:02:19.074Z,1412
2017-09-27T16:03:28.711Z,1384